Fairbanks International, AK

5:43 AM AKDT on September 16, 2014 (GMT -0800)
Fairbanks International | Change Station
CLOSE
Current Station
Airport
Location: Fairbanks,
Elevation: 433 ft
Nearby Weather Stations

Elev 433 ft 64.80 °N, 147.88 °W | Updated 50 minutes ago

Mostly Cloudy
Mostly Cloudy
42 °F
Feels Like 40 °F
N
4
Wind Variable Wind from ESE

Today
High -- | Low -- °F
--% Chance of Precip.
Yesterday
High -- | Low -- °F
Precip. -- in
7:17 AM 8:13 PM
Last Quarter, 45% visible
Pressure 29.65 in
Visibility 10.0 miles
Clouds Scattered Clouds 8000 ft
Mostly Cloudy 12000 ft
Windchill 40 °F
Dew Point 37 °F
Humidity 82%
Rainfall 0.00 in
Snow Depth 1 in , 1 in , 0 in
UV 0 out of 12
Pollen Not available.
Air Quality Not available.
Flu Activity Not available.
METAR PAFA 161253Z 11003KT 10SM SCT080 BKN120 06/03 A2963 RMK AO2 SLP038 T00560028

More Conditions Fewer Conditions

Pressure 29.65 in
Visibility 10.0 miles
Clouds Scattered Clouds 8000 ft
Mostly Cloudy 12000 ft
Windchill 40 °F
Dew Point 37 °F
Humidity 82%
Rainfall 0.00 in
Snow Depth 1 in , 1 in , 0 in
UV 0 out of 12
Pollen Not available.
Air Quality Not available.
Flu Activity Not available.
METAR PAFA 161253Z 11003KT 10SM SCT080 BKN120 06/03 A2963 RMK AO2 SLP038 T00560028

More Conditions Fewer Conditions

10-Day Weather Forecast

Almanac

Astronomy

Sep. 16, 2014 Rise Set
Actual Time 7:17 AM AKDT 8:13 PM AKDT
Civil Twilight 6:26 AM AKDT 9:03 PM AKDT
Nautical Twilight 5:23 AM AKDT 10:05 PM AKDT
Astronomical Twilight 4:05 AM AKDT 11:22 PM AKDT
Moon 11:47 PM AKDT 5:26 PM AKDT
Length of Visible Light 14h 36m
Length of Day
12h 56m
Tomorrow will be 6m 38s shorter.
Last Quarter, 45% of the Moon is Illuminated
Today
Last Quarter
Sep 24
New
Oct 1
First Quarter
Oct 8
Full
Oct 15
Last Quarter

Today's Extremes

State Highs State Lows

Community

WunderPhotos

Upload Photos

1,753,774 photos uploaded!

Nearby

Snow Depth

Station Depth Elevation
Eagle Summit 1 in 3650 ft
Coldfoot 1 in 1040 ft
Upper Tsaina River 0 in 1750 ft
Upper Chena 1 in 2850 ft
Susitna Valley High 109 in 375 ft

Earthquake Activity

City Distance Mag. Time & Date
No recent earthquake activity has been reported nearby.
Minimum magnitude displayed is 2.5.

Coastal Water Temperatures

Place Temperature
No Stations Reporting

Nearby Weather Stations